NWK1673 YMHB-YPPH
Flight info
| Callsign | NWK1673 |
|---|---|
| Flight time | N/A |
| Altitude | 38000 |
| Route | HB DCT RIBLI DCT TUNGO L513 TAPAX DCT SOLUS DCT PH |
| Aircraft | A319/M-SDE3FGHIRWY/LB1 |
Departure
| Time | N/A |
|---|---|
| Airport | Hobart International Airport (YMHB) |
Arrival
| Time | 2026-05-08 02:55 |
|---|---|
| Airport | Perth International Airport (YPPH) |
| Time | Latitude | Longitude | Altitude | Speed | Heading |
|---|---|---|---|---|---|
| 2026-05-08 02:10 | -34.44156 | 120.47302 | 38637 ft | 449 kts | 297° |
| 2026-05-08 02:10 | -34.42688 | 120.43961 | 38630 ft | 449 kts | 297° |
| 2026-05-08 02:10 | -34.39749 | 120.37276 | 38629 ft | 449 kts | 297° |
| 2026-05-08 02:11 | -34.36809 | 120.30616 | 38632 ft | 449 kts | 297° |
| 2026-05-08 02:11 | -34.33864 | 120.23955 | 38625 ft | 449 kts | 297° |
| 2026-05-08 02:12 | -34.30916 | 120.17304 | 38627 ft | 448 kts | 297° |
| 2026-05-08 02:12 | -34.27961 | 120.10663 | 38620 ft | 448 kts | 297° |
| 2026-05-08 02:13 | -34.25008 | 120.04027 | 38619 ft | 448 kts | 297° |
| 2026-05-08 02:13 | -34.22071 | 119.97432 | 38626 ft | 448 kts | 297° |
| 2026-05-08 02:14 | -34.19108 | 119.90809 | 38618 ft | 448 kts | 297° |
| 2026-05-08 02:14 | -34.16138 | 119.84195 | 38614 ft | 448 kts | 297° |
| 2026-05-08 02:15 | -34.13174 | 119.77584 | 38621 ft | 448 kts | 297° |
| 2026-05-08 02:15 | -34.10209 | 119.70981 | 38621 ft | 447 kts | 297° |
| 2026-05-08 02:16 | -34.07239 | 119.64385 | 38622 ft | 447 kts | 297° |
| 2026-05-08 02:16 | -34.04266 | 119.57797 | 38617 ft | 447 kts | 297° |
| 2026-05-08 02:17 | -34.01289 | 119.51227 | 38609 ft | 447 kts | 297° |
| 2026-05-08 02:17 | -33.98316 | 119.44649 | 38617 ft | 447 kts | 297° |
| 2026-05-08 02:18 | -33.95340 | 119.38076 | 38610 ft | 447 kts | 297° |
| 2026-05-08 02:18 | -33.92371 | 119.31551 | 38608 ft | 447 kts | 297° |
| 2026-05-08 02:19 | -33.89383 | 119.24995 | 38599 ft | 447 kts | 297° |
| 2026-05-08 02:19 | -33.86399 | 119.18440 | 38606 ft | 446 kts | 297° |
| 2026-05-08 02:20 | -33.83404 | 119.11893 | 38593 ft | 447 kts | 297° |
| 2026-05-08 02:20 | -33.80408 | 119.05350 | 38598 ft | 447 kts | 297° |
| 2026-05-08 02:21 | -33.77410 | 118.98801 | 38592 ft | 447 kts | 297° |
| 2026-05-08 02:21 | -33.74408 | 118.92265 | 38589 ft | 447 kts | 297° |
| 2026-05-08 02:22 | -33.71404 | 118.85741 | 38594 ft | 447 kts | 297° |
| 2026-05-08 02:22 | -33.68390 | 118.79216 | 38582 ft | 447 kts | 298° |
| 2026-05-08 02:23 | -33.65374 | 118.72693 | 38593 ft | 447 kts | 298° |
| 2026-05-08 02:23 | -33.62353 | 118.66176 | 38585 ft | 447 kts | 298° |
| 2026-05-08 02:24 | -33.59335 | 118.59668 | 38585 ft | 447 kts | 298° |
| 2026-05-08 02:24 | -33.56327 | 118.53195 | 38579 ft | 447 kts | 298° |
| 2026-05-08 02:25 | -33.53298 | 118.46691 | 38582 ft | 447 kts | 298° |
| 2026-05-08 02:25 | -33.50273 | 118.40199 | 38582 ft | 446 kts | 298° |
| 2026-05-08 02:26 | -33.47243 | 118.33705 | 38581 ft | 446 kts | 298° |
| 2026-05-08 02:26 | -33.44204 | 118.27220 | 38573 ft | 446 kts | 298° |
| 2026-05-08 02:27 | -33.41166 | 118.20738 | 38576 ft | 446 kts | 298° |
| 2026-05-08 02:27 | -33.38125 | 118.14259 | 38574 ft | 446 kts | 298° |
| 2026-05-08 02:28 | -33.35073 | 118.07779 | 38571 ft | 446 kts | 298° |
| 2026-05-08 02:28 | -33.32030 | 118.01310 | 38567 ft | 446 kts | 298° |
| 2026-05-08 02:29 | -33.28978 | 117.94860 | 38565 ft | 446 kts | 298° |
| 2026-05-08 02:29 | -33.25938 | 117.88441 | 38563 ft | 446 kts | 298° |
| 2026-05-08 02:30 | -33.22880 | 117.81993 | 38564 ft | 446 kts | 298° |
| 2026-05-08 02:30 | -33.19805 | 117.75513 | 38561 ft | 446 kts | 298° |
| 2026-05-08 02:31 | -33.16759 | 117.69116 | 38555 ft | 445 kts | 298° |
| 2026-05-08 02:31 | -33.13697 | 117.62685 | 38557 ft | 446 kts | 298° |
| 2026-05-08 02:32 | -33.10628 | 117.56258 | 38271 ft | 445 kts | 298° |
| 2026-05-08 02:32 | -33.09092 | 117.53050 | 37686 ft | 447 kts | 298° |
| 2026-05-08 02:32 | -33.07545 | 117.49819 | 36983 ft | 450 kts | 299° |
| 2026-05-08 02:33 | -33.05992 | 117.46573 | 36270 ft | 453 kts | 299° |
| 2026-05-08 02:33 | -33.04950 | 117.44394 | 35768 ft | 456 kts | 300° |
| 2026-05-08 02:33 | -33.03371 | 117.41095 | 34972 ft | 461 kts | 300° |
| 2026-05-08 02:33 | -33.01781 | 117.37777 | 34330 ft | 461 kts | 300° |
| 2026-05-08 02:34 | -33.00197 | 117.34474 | 33798 ft | 457 kts | 300° |
| 2026-05-08 02:34 | -32.98623 | 117.31197 | 33264 ft | 454 kts | 301° |
| 2026-05-08 02:34 | -32.97059 | 117.27948 | 32741 ft | 451 kts | 301° |
| 2026-05-08 02:34 | -32.95500 | 117.24714 | 32212 ft | 448 kts | 301° |
| 2026-05-08 02:35 | -32.93956 | 117.21516 | 31680 ft | 445 kts | 301° |
| 2026-05-08 02:35 | -32.92416 | 117.18334 | 31154 ft | 442 kts | 301° |
| 2026-05-08 02:35 | -32.90884 | 117.15168 | 30627 ft | 440 kts | 301° |
| 2026-05-08 02:35 | -32.89360 | 117.12021 | 30052 ft | 437 kts | 301° |
| 2026-05-08 02:36 | -32.87848 | 117.08904 | 29540 ft | 433 kts | 301° |
| 2026-05-08 02:36 | -32.86353 | 117.05815 | 29032 ft | 429 kts | 301° |
| 2026-05-08 02:36 | -32.84871 | 117.02754 | 28520 ft | 425 kts | 301° |
| 2026-05-08 02:36 | -32.83405 | 116.99727 | 28033 ft | 422 kts | 301° |
| 2026-05-08 02:37 | -32.81944 | 116.96709 | 27554 ft | 419 kts | 301° |
| 2026-05-08 02:37 | -32.80497 | 116.93722 | 27082 ft | 415 kts | 301° |
| 2026-05-08 02:37 | -32.79057 | 116.90757 | 26613 ft | 413 kts | 302° |
| 2026-05-08 02:37 | -32.77625 | 116.87814 | 26180 ft | 410 kts | 302° |
| 2026-05-08 02:38 | -32.76199 | 116.84889 | 25734 ft | 408 kts | 302° |
| 2026-05-08 02:38 | -32.74778 | 116.81980 | 25305 ft | 406 kts | 302° |
| 2026-05-08 02:38 | -32.73363 | 116.79085 | 24863 ft | 404 kts | 302° |
| 2026-05-08 02:38 | -32.71950 | 116.76196 | 24426 ft | 403 kts | 302° |
| 2026-05-08 02:39 | -32.70550 | 116.73332 | 23970 ft | 401 kts | 302° |
| 2026-05-08 02:39 | -32.69153 | 116.70477 | 23501 ft | 398 kts | 302° |
| 2026-05-08 02:39 | -32.67768 | 116.67646 | 23044 ft | 395 kts | 302° |
| 2026-05-08 02:39 | -32.66398 | 116.64840 | 22586 ft | 391 kts | 302° |
| 2026-05-08 02:40 | -32.65037 | 116.62058 | 22118 ft | 388 kts | 303° |
| 2026-05-08 02:40 | -32.63685 | 116.59301 | 21648 ft | 385 kts | 303° |
| 2026-05-08 02:40 | -32.62342 | 116.56566 | 21177 ft | 382 kts | 303° |
| 2026-05-08 02:40 | -32.61010 | 116.53855 | 20710 ft | 380 kts | 303° |
| 2026-05-08 02:41 | -32.59683 | 116.51155 | 20233 ft | 378 kts | 303° |
| 2026-05-08 02:41 | -32.58362 | 116.48470 | 19751 ft | 376 kts | 303° |
| 2026-05-08 02:41 | -32.57046 | 116.45801 | 19285 ft | 374 kts | 303° |
| 2026-05-08 02:41 | -32.55737 | 116.43147 | 18803 ft | 372 kts | 303° |
| 2026-05-08 02:42 | -32.54436 | 116.40506 | 18285 ft | 370 kts | 303° |
| 2026-05-08 02:42 | -32.53144 | 116.37890 | 17819 ft | 366 kts | 303° |
| 2026-05-08 02:42 | -32.51882 | 116.35333 | 17352 ft | 363 kts | 303° |
| 2026-05-08 02:42 | -32.50598 | 116.32730 | 16881 ft | 359 kts | 303° |
| 2026-05-08 02:43 | -32.49323 | 116.30256 | 16429 ft | 354 kts | 309° |
| 2026-05-08 02:43 | -32.47710 | 116.28098 | 15993 ft | 346 kts | 321° |
| 2026-05-08 02:43 | -32.45794 | 116.26429 | 15554 ft | 339 kts | 334° |
| 2026-05-08 02:43 | -32.43710 | 116.25161 | 15130 ft | 334 kts | 337° |
| 2026-05-08 02:44 | -32.41642 | 116.23933 | 14704 ft | 332 kts | 337° |
| 2026-05-08 02:44 | -32.39582 | 116.22703 | 14275 ft | 330 kts | 337° |
| 2026-05-08 02:44 | -32.37539 | 116.21482 | 13821 ft | 328 kts | 337° |
| 2026-05-08 02:44 | -32.35514 | 116.20271 | 13402 ft | 324 kts | 337° |
| 2026-05-08 02:45 | -32.33508 | 116.19075 | 12983 ft | 321 kts | 337° |
| 2026-05-08 02:45 | -32.31520 | 116.17892 | 12566 ft | 319 kts | 337° |
| 2026-05-08 02:45 | -32.29549 | 116.16716 | 12155 ft | 316 kts | 337° |
| 2026-05-08 02:45 | -32.27593 | 116.15550 | 11747 ft | 314 kts | 337° |
| 2026-05-08 02:46 | -32.25649 | 116.14392 | 11345 ft | 312 kts | 337° |
| 2026-05-08 02:46 | -32.23778 | 116.13086 | 10939 ft | 315 kts | 325° |
| 2026-05-08 02:46 | -32.22257 | 116.11228 | 10652 ft | 314 kts | 309° |
| 2026-05-08 02:46 | -32.21221 | 116.08996 | 10313 ft | 309 kts | 293° |
| 2026-05-08 02:47 | -32.20641 | 116.06565 | 9943 ft | 305 kts | 286° |
| 2026-05-08 02:47 | -32.20116 | 116.04108 | 9377 ft | 313 kts | 287° |
| 2026-05-08 02:47 | -32.19584 | 116.01647 | 9159 ft | 306 kts | 287° |
| 2026-05-08 02:47 | -32.19059 | 115.99226 | 8703 ft | 303 kts | 287° |
| 2026-05-08 02:48 | -32.18533 | 115.96828 | 8098 ft | 301 kts | 287° |
| 2026-05-08 02:48 | -32.18012 | 115.94450 | 7723 ft | 292 kts | 287° |
| 2026-05-08 02:48 | -32.17519 | 115.92191 | 7488 ft | 280 kts | 287° |
| 2026-05-08 02:48 | -32.16901 | 115.90048 | 7094 ft | 272 kts | 300° |
| 2026-05-08 02:49 | -32.15897 | 115.88210 | 6601 ft | 270 kts | 314° |
| 2026-05-08 02:49 | -32.14707 | 115.86526 | 6417 ft | 265 kts | 313° |
| 2026-05-08 02:49 | -32.13548 | 115.84845 | 6176 ft | 263 kts | 313° |
| 2026-05-08 02:49 | -32.12403 | 115.83174 | 5923 ft | 260 kts | 314° |
| 2026-05-08 02:50 | -32.11081 | 115.81777 | 5662 ft | 252 kts | 332° |
| 2026-05-08 02:50 | -32.09534 | 115.80908 | 5262 ft | 243 kts | 347° |
| 2026-05-08 02:50 | -32.07870 | 115.80563 | 4540 ft | 246 kts | 358° |
| 2026-05-08 02:50 | -32.06138 | 115.80355 | 3819 ft | 252 kts | 357° |
| 2026-05-08 02:51 | -32.04374 | 115.80135 | 3179 ft | 255 kts | 357° |
| 2026-05-08 02:51 | -32.02656 | 115.79922 | 3119 ft | 240 kts | 359° |
| 2026-05-08 02:51 | -32.01125 | 115.80249 | 3050 ft | 213 kts | 31° |
| 2026-05-08 02:51 | -32.00158 | 115.81470 | 2818 ft | 206 kts | 64° |
| 2026-05-08 02:52 | -31.99739 | 115.83071 | 2539 ft | 203 kts | 70° |
| 2026-05-08 02:52 | -31.99303 | 115.84633 | 2253 ft | 199 kts | 68° |
| 2026-05-08 02:52 | -31.98860 | 115.86144 | 1961 ft | 189 kts | 68° |
| 2026-05-08 02:52 | -31.98430 | 115.87549 | 1697 ft | 176 kts | 63° |
| 2026-05-08 02:53 | -31.97839 | 115.88725 | 1501 ft | 160 kts | 57° |
| 2026-05-08 02:53 | -31.97280 | 115.89799 | 1277 ft | 147 kts | 59° |
| 2026-05-08 02:53 | -31.96781 | 115.90756 | 1089 ft | 132 kts | 59° |
| 2026-05-08 02:53 | -31.96312 | 115.91654 | 912 ft | 126 kts | 59° |
| 2026-05-08 02:54 | -31.95859 | 115.92523 | 742 ft | 124 kts | 56° |
| 2026-05-08 02:54 | -31.95412 | 115.93384 | 588 ft | 122 kts | 58° |
| 2026-05-08 02:54 | -31.94968 | 115.94240 | 415 ft | 123 kts | 58° |
| 2026-05-08 02:54 | -31.94526 | 115.95089 | 227 ft | 120 kts | 57° |
| 2026-05-08 02:55 | -31.94105 | 115.95934 | 74 ft | 119 kts | 55° |
| 2026-05-08 02:55 | -31.93596 | 115.96914 | 53 ft | 34 kts | 58° |
| 2026-05-08 02:55 | -31.93517 | 115.97071 | 55 ft | 15 kts | 74° |
| 2026-05-08 02:56 | -31.93586 | 115.97169 | 50 ft | 18 kts | 149° |
| 2026-05-08 02:56 | -31.93697 | 115.97246 | 54 ft | 18 kts | 147° |
| 2026-05-08 02:56 | -31.93806 | 115.97324 | 63 ft | 19 kts | 150° |
| 2026-05-08 02:56 | -31.93911 | 115.97316 | 59 ft | 16 kts | 229° |
| 2026-05-08 02:57 | -31.93960 | 115.97185 | 63 ft | 19 kts | 249° |
| 2026-05-08 02:57 | -31.93962 | 115.97020 | 66 ft | 21 kts | 285° |
| 2026-05-08 02:57 | -31.93950 | 115.96873 | 62 ft | 20 kts | 241° |
| 2026-05-08 02:57 | -31.94074 | 115.96838 | 62 ft | 17 kts | 184° |
| 2026-05-08 02:58 | -31.94161 | 115.96831 | 63 ft | 11 kts | 167° |
| 2026-05-08 02:58 | -31.94201 | 115.96924 | 66 ft | 16 kts | 105° |
| 2026-05-08 02:58 | -31.94233 | 115.97027 | 66 ft | 11 kts | 137° |
| 2026-05-08 02:58 | -31.94302 | 115.97023 | 66 ft | 8 kts | 194° |
| 2026-05-08 02:59 | -31.94338 | 115.97061 | 61 ft | 9 kts | 93° |
| 2026-05-08 02:59 | -31.94342 | 115.97080 | 66 ft | 2 kts | 106° |
| 2026-05-08 02:59 | -31.94343 | 115.97086 | 64 ft | 0 kts | 106° |